weather.gov     
National Weather Service

Terminal Aerodrome Forecast
NWS Homepage
This page is being discontinued on March 12, 2014.
The same data is available at this site. Please update your bookmarks.
Thank you, and we apologize for the inconvenience.
Please send an email to SR-SRH.Webmaster@noaa.gov with any concerns.


Current Version
Previous Version:    01  02  03  04  05  06  07  08  09  10  11  12  13  14  15  16  17  18  19  20  21  22  23  24  25  26  27  28  29  30  
   31  32  33  34  35  36  37  38  39  
[Printable]
179
FTUS43 KGRB 010500
TAFCWA
TAF
KCWA 010539Z 0106/0206 13006KT P6SM OVC007
     FM010800 13004KT 5SM BR SCT004 OVC006
      TEMPO 0109/0113 3SM BR BKN004
     FM011500 15008KT P6SM BKN012
     FM012100 15006KT P6SM VCSH BKN020
     FM012300 12004KT 5SM -RA BR SCT006 OVC012
      TEMPO 0202/0206 2SM -RA BR BKN006
      AMD LTD TO CLD VIS AND WIND TIL 011200=


U.S. Dept. of Commerce
NOAA National Weather Service
1325 East West Highway
Silver Spring, MD 20910
E-mail: w-nws.webmaster@noaa.gov
Page last modified: May 16, 2007
NATIONAL WEATHER SERVICE: for Safety, for Work, for Fun - FOR LIFE